sensor_id;sensor_type;location;lat;lon;timestamp;P1;durP1;ratioP1;P2;durP2;ratioP2
25535;SDS011;13431;51.352;6.412;2022-09-13T00:02:22;7.75;;;7.10;;
25535;SDS011;13431;51.352;6.412;2022-09-13T00:04:50;7.47;;;6.45;;
25535;SDS011;13431;51.352;6.412;2022-09-13T00:07:17;7.03;;;6.32;;
25535;SDS011;13431;51.352;6.412;2022-09-13T00:09:45;7.05;;;6.45;;
25535;SDS011;13431;51.352;6.412;2022-09-13T00:12:12;6.72;;;6.05;;
25535;SDS011;13431;51.352;6.412;2022-09-13T00:14:39;6.90;;;6.20;;
25535;SDS011;13431;51.352;6.412;2022-09-13T00:17:07;6.07;;;5.45;;
25535;SDS011;13431;51.352;6.412;2022-09-13T00:19:34;5.90;;;5.35;;
25535;SDS011;13431;51.352;6.412;2022-09-13T00:22:01;5.68;;;4.90;;
25535;SDS011;13431;51.352;6.412;2022-09-13T00:24:29;5.95;;;5.20;;
25535;SDS011;13431;51.352;6.412;2022-09-13T00:26:56;5.75;;;5.25;;
25535;SDS011;13431;51.352;6.412;2022-09-13T00:29:23;6.68;;;5.40;;
25535;SDS011;13431;51.352;6.412;2022-09-13T00:31:51;5.32;;;4.75;;
25535;SDS011;13431;51.352;6.412;2022-09-13T00:34:19;5.15;;;4.65;;
25535;SDS011;13431;51.352;6.412;2022-09-13T00:36:46;5.32;;;4.68;;
25535;SDS011;13431;51.352;6.412;2022-09-13T00:39:13;5.05;;;4.65;;
25535;SDS011;13431;51.352;6.412;2022-09-13T00:41:40;5.57;;;5.05;;
25535;SDS011;13431;51.352;6.412;2022-09-13T00:44:56;5.30;;;4.68;;
25535;SDS011;13431;51.352;6.412;2022-09-13T00:47:14;5.25;;;4.75;;
25535;SDS011;13431;51.352;6.412;2022-09-13T00:49:51;7.13;;;4.93;;
25535;SDS011;13431;51.352;6.412;2022-09-13T00:52:40;4.95;;;4.55;;
25535;SDS011;13431;51.352;6.412;2022-09-13T00:55:15;5.60;;;4.45;;
25535;SDS011;13431;51.352;6.412;2022-09-13T00:57:48;6.28;;;4.53;;
25535;SDS011;13431;51.352;6.412;2022-09-13T01:00:17;5.80;;;4.95;;
25535;SDS011;13431;51.352;6.412;2022-09-13T01:02:46;4.60;;;4.20;;
25535;SDS011;13431;51.352;6.412;2022-09-13T01:05:19;4.75;;;4.32;;
25535;SDS011;13431;51.352;6.412;2022-09-13T01:07:50;4.72;;;4.13;;
25535;SDS011;13431;51.352;6.412;2022-09-13T01:10:17;4.78;;;4.38;;
25535;SDS011;13431;51.352;6.412;2022-09-13T01:12:50;4.78;;;4.32;;
25535;SDS011;13431;51.352;6.412;2022-09-13T01:15:23;6.45;;;4.80;;
25535;SDS011;13431;51.352;6.412;2022-09-13T01:17:51;4.88;;;4.07;;
25535;SDS011;13431;51.352;6.412;2022-09-13T01:20:20;4.65;;;4.25;;
25535;SDS011;13431;51.352;6.412;2022-09-13T01:25:54;5.72;;;4.18;;
25535;SDS011;13431;51.352;6.412;2022-09-13T01:31:41;4.40;;;4.00;;
25535;SDS011;13431;51.352;6.412;2022-09-13T01:37:05;4.50;;;4.15;;
25535;SDS011;13431;51.352;6.412;2022-09-13T01:39:45;4.20;;;3.80;;
25535;SDS011;13431;51.352;6.412;2022-09-13T01:42:48;4.00;;;3.70;;
25535;SDS011;13431;51.352;6.412;2022-09-13T01:45:40;5.32;;;4.03;;
25535;SDS011;13431;51.352;6.412;2022-09-13T01:48:34;5.97;;;4.18;;
25535;SDS011;13431;51.352;6.412;2022-09-13T01:54:09;5.00;;;3.90;;
25535;SDS011;13431;51.352;6.412;2022-09-13T01:56:54;4.68;;;4.28;;
25535;SDS011;13431;51.352;6.412;2022-09-13T01:59:52;4.38;;;3.35;;
25535;SDS011;13431;51.352;6.412;2022-09-13T02:02:43;4.40;;;3.97;;
25535;SDS011;13431;51.352;6.412;2022-09-13T02:05:41;4.55;;;3.80;;
25535;SDS011;13431;51.352;6.412;2022-09-13T02:08:16;5.22;;;4.07;;
25535;SDS011;13431;51.352;6.412;2022-09-13T02:10:57;3.80;;;3.50;;
25535;SDS011;13431;51.352;6.412;2022-09-13T02:13:41;3.95;;;3.65;;
25535;SDS011;13431;51.352;6.412;2022-09-13T02:16:18;5.70;;;3.78;;
25535;SDS011;13431;51.352;6.412;2022-09-13T02:18:57;3.88;;;3.58;;
25535;SDS011;13431;51.352;6.412;2022-09-13T02:21:30;4.35;;;3.80;;
25535;SDS011;13431;51.352;6.412;2022-09-13T02:24:05;3.92;;;3.60;;
25535;SDS011;13431;51.352;6.412;2022-09-13T02:26:35;3.97;;;3.58;;
25535;SDS011;13431;51.352;6.412;2022-09-13T02:29:07;3.70;;;3.40;;
25535;SDS011;13431;51.352;6.412;2022-09-13T02:32:25;5.35;;;3.40;;
25535;SDS011;13431;51.352;6.412;2022-09-13T02:34:33;4.35;;;3.33;;
25535;SDS011;13431;51.352;6.412;2022-09-13T02:37:08;4.70;;;4.22;;
25535;SDS011;13431;51.352;6.412;2022-09-13T02:39:40;5.70;;;3.13;;
25535;SDS011;13431;51.352;6.412;2022-09-13T02:42:18;4.07;;;3.55;;
25535;SDS011;13431;51.352;6.412;2022-09-13T02:44:52;4.60;;;3.40;;
25535;SDS011;13431;51.352;6.412;2022-09-13T02:50:13;4.45;;;3.58;;
25535;SDS011;13431;51.352;6.412;2022-09-13T02:55:59;4.40;;;4.00;;
25535;SDS011;13431;51.352;6.412;2022-09-13T02:58:52;6.45;;;4.30;;
25535;SDS011;13431;51.352;6.412;2022-09-13T03:01:37;4.72;;;4.03;;
25535;SDS011;13431;51.352;6.412;2022-09-13T03:04:07;4.30;;;3.90;;
25535;SDS011;13431;51.352;6.412;2022-09-13T03:06:34;6.38;;;4.40;;
25535;SDS011;13431;51.352;6.412;2022-09-13T03:09:03;5.20;;;3.92;;
25535;SDS011;13431;51.352;6.412;2022-09-13T03:14:42;4.72;;;4.05;;
25535;SDS011;13431;51.352;6.412;2022-09-13T03:17:14;5.90;;;4.15;;
25535;SDS011;13431;51.352;6.412;2022-09-13T03:20:07;4.82;;;4.43;;
25535;SDS011;13431;51.352;6.412;2022-09-13T03:22:46;4.30;;;3.80;;
25535;SDS011;13431;51.352;6.412;2022-09-13T03:31:12;5.22;;;4.72;;
25535;SDS011;13431;51.352;6.412;2022-09-13T03:33:51;4.30;;;3.92;;
25535;SDS011;13431;51.352;6.412;2022-09-13T03:39:11;4.35;;;4.05;;
25535;SDS011;13431;51.352;6.412;2022-09-13T03:41:48;5.25;;;4.35;;
25535;SDS011;13431;51.352;6.412;2022-09-13T03:44:22;4.80;;;3.83;;
25535;SDS011;13431;51.352;6.412;2022-09-13T03:46:53;5.63;;;4.40;;
25535;SDS011;13431;51.352;6.412;2022-09-13T03:49:24;4.07;;;3.78;;
25535;SDS011;13431;51.352;6.412;2022-09-13T03:51:53;4.28;;;3.95;;
25535;SDS011;13431;51.352;6.412;2022-09-13T03:54:25;5.28;;;3.95;;
25535;SDS011;13431;51.352;6.412;2022-09-13T03:57:05;5.57;;;5.10;;
25535;SDS011;13431;51.352;6.412;2022-09-13T03:59:47;4.60;;;4.10;;
25535;SDS011;13431;51.352;6.412;2022-09-13T04:02:16;4.47;;;3.80;;
25535;SDS011;13431;51.352;6.412;2022-09-13T04:04:45;4.78;;;4.20;;
25535;SDS011;13431;51.352;6.412;2022-09-13T04:07:17;5.43;;;3.90;;
25535;SDS011;13431;51.352;6.412;2022-09-13T04:09:46;6.15;;;5.13;;
25535;SDS011;13431;51.352;6.412;2022-09-13T04:12:14;5.95;;;4.93;;
25535;SDS011;13431;51.352;6.412;2022-09-13T04:14:42;6.10;;;5.60;;
25535;SDS011;13431;51.352;6.412;2022-09-13T04:17:10;7.82;;;5.60;;
25535;SDS011;13431;51.352;6.412;2022-09-13T04:19:37;5.80;;;4.38;;
25535;SDS011;13431;51.352;6.412;2022-09-13T04:22:05;5.18;;;4.47;;
25535;SDS011;13431;51.352;6.412;2022-09-13T04:24:33;5.72;;;4.68;;
25535;SDS011;13431;51.352;6.412;2022-09-13T04:27:00;4.40;;;4.10;;
25535;SDS011;13431;51.352;6.412;2022-09-13T04:29:28;4.15;;;3.63;;
25535;SDS011;13431;51.352;6.412;2022-09-13T04:31:57;4.78;;;4.38;;
25535;SDS011;13431;51.352;6.412;2022-09-13T04:34:26;5.68;;;4.10;;
25535;SDS011;13431;51.352;6.412;2022-09-13T04:36:53;4.30;;;3.90;;
25535;SDS011;13431;51.352;6.412;2022-09-13T04:39:21;5.63;;;3.78;;
25535;SDS011;13431;51.352;6.412;2022-09-13T04:41:50;3.95;;;3.53;;
25535;SDS011;13431;51.352;6.412;2022-09-13T04:44:18;5.13;;;4.63;;
25535;SDS011;13431;51.352;6.412;2022-09-13T04:46:46;4.35;;;3.95;;
25535;SDS011;13431;51.352;6.412;2022-09-13T04:49:19;4.85;;;3.83;;
25535;SDS011;13431;51.352;6.412;2022-09-13T04:51:47;4.10;;;3.70;;
25535;SDS011;13431;51.352;6.412;2022-09-13T04:54:15;5.05;;;4.10;;
25535;SDS011;13431;51.352;6.412;2022-09-13T04:56:43;5.20;;;4.53;;
25535;SDS011;13431;51.352;6.412;2022-09-13T04:59:11;6.22;;;4.43;;
25535;SDS011;13431;51.352;6.412;2022-09-13T05:01:39;4.68;;;4.22;;
25535;SDS011;13431;51.352;6.412;2022-09-13T05:04:08;6.22;;;4.57;;
25535;SDS011;13431;51.352;6.412;2022-09-13T05:06:36;7.47;;;4.20;;
25535;SDS011;13431;51.352;6.412;2022-09-13T05:09:04;4.18;;;3.80;;
25535;SDS011;13431;51.352;6.412;2022-09-13T05:11:31;6.80;;;3.88;;
25535;SDS011;13431;51.352;6.412;2022-09-13T05:13:59;5.43;;;4.22;;
25535;SDS011;13431;51.352;6.412;2022-09-13T05:16:28;4.95;;;4.45;;
25535;SDS011;13431;51.352;6.412;2022-09-13T05:18:57;5.03;;;4.03;;
25535;SDS011;13431;51.352;6.412;2022-09-13T05:21:25;5.68;;;4.15;;
25535;SDS011;13431;51.352;6.412;2022-09-13T05:23:54;8.00;;;4.00;;
25535;SDS011;13431;51.352;6.412;2022-09-13T05:26:22;4.85;;;3.90;;
25535;SDS011;13431;51.352;6.412;2022-09-13T05:28:52;4.07;;;3.67;;
25535;SDS011;13431;51.352;6.412;2022-09-13T05:31:23;5.00;;;3.85;;
25535;SDS011;13431;51.352;6.412;2022-09-13T05:33:55;4.72;;;3.85;;
25535;SDS011;13431;51.352;6.412;2022-09-13T05:36:27;5.78;;;3.72;;
25535;SDS011;13431;51.352;6.412;2022-09-13T05:38:55;4.22;;;3.78;;
25535;SDS011;13431;51.352;6.412;2022-09-13T05:41:44;6.10;;;3.72;;
25535;SDS011;13431;51.352;6.412;2022-09-13T05:44:11;4.28;;;3.97;;
25535;SDS011;13431;51.352;6.412;2022-09-13T05:46:40;4.70;;;3.58;;
25535;SDS011;13431;51.352;6.412;2022-09-13T05:49:10;4.20;;;3.80;;
25535;SDS011;13431;51.352;6.412;2022-09-13T05:51:39;3.85;;;3.55;;
25535;SDS011;13431;51.352;6.412;2022-09-13T05:54:07;4.28;;;3.90;;
25535;SDS011;13431;51.352;6.412;2022-09-13T05:56:37;4.18;;;3.58;;
25535;SDS011;13431;51.352;6.412;2022-09-13T05:59:05;6.20;;;3.70;;
25535;SDS011;13431;51.352;6.412;2022-09-13T06:01:33;5.13;;;4.10;;
25535;SDS011;13431;51.352;6.412;2022-09-13T06:04:04;4.72;;;4.32;;
25535;SDS011;13431;51.352;6.412;2022-09-13T06:06:32;5.32;;;3.65;;
25535;SDS011;13431;51.352;6.412;2022-09-13T06:09:01;6.28;;;3.83;;
25535;SDS011;13431;51.352;6.412;2022-09-13T06:11:29;5.05;;;3.60;;
25535;SDS011;13431;51.352;6.412;2022-09-13T06:13:57;4.35;;;3.80;;
25535;SDS011;13431;51.352;6.412;2022-09-13T06:16:25;4.65;;;3.83;;
25535;SDS011;13431;51.352;6.412;2022-09-13T06:18:53;3.97;;;3.63;;
25535;SDS011;13431;51.352;6.412;2022-09-13T06:21:23;3.80;;;3.50;;
25535;SDS011;13431;51.352;6.412;2022-09-13T06:23:55;4.32;;;3.97;;
25535;SDS011;13431;51.352;6.412;2022-09-13T06:26:26;6.05;;;3.47;;
25535;SDS011;13431;51.352;6.412;2022-09-13T06:28:55;4.50;;;4.05;;
25535;SDS011;13431;51.352;6.412;2022-09-13T06:31:25;7.40;;;4.35;;
25535;SDS011;13431;51.352;6.412;2022-09-13T06:33:58;5.40;;;4.38;;
25535;SDS011;13431;51.352;6.412;2022-09-13T06:36:28;4.25;;;3.88;;
25535;SDS011;13431;51.352;6.412;2022-09-13T06:38:56;4.60;;;4.20;;
25535;SDS011;13431;51.352;6.412;2022-09-13T06:41:26;3.97;;;3.67;;
25535;SDS011;13431;51.352;6.412;2022-09-13T06:43:55;4.25;;;3.90;;
25535;SDS011;13431;51.352;6.412;2022-09-13T06:46:26;4.43;;;3.85;;
25535;SDS011;13431;51.352;6.412;2022-09-13T06:48:57;4.47;;;3.42;;
25535;SDS011;13431;51.352;6.412;2022-09-13T06:51:26;4.32;;;3.50;;
25535;SDS011;13431;51.352;6.412;2022-09-13T06:53:55;5.50;;;3.35;;
25535;SDS011;13431;51.352;6.412;2022-09-13T06:56:25;4.80;;;4.40;;
25535;SDS011;13431;51.352;6.412;2022-09-13T06:58:59;4.07;;;3.47;;
25535;SDS011;13431;51.352;6.412;2022-09-13T07:01:30;4.43;;;4.00;;
25535;SDS011;13431;51.352;6.412;2022-09-13T07:04:07;4.85;;;4.10;;
25535;SDS011;13431;51.352;6.412;2022-09-13T07:06:37;4.30;;;3.90;;
25535;SDS011;13431;51.352;6.412;2022-09-13T07:09:07;5.03;;;3.53;;
25535;SDS011;13431;51.352;6.412;2022-09-13T07:11:38;3.65;;;3.35;;
25535;SDS011;13431;51.352;6.412;2022-09-13T07:14:07;4.15;;;3.83;;
25535;SDS011;13431;51.352;6.412;2022-09-13T07:16:36;5.07;;;3.78;;
25535;SDS011;13431;51.352;6.412;2022-09-13T07:19:05;5.43;;;3.80;;
25535;SDS011;13431;51.352;6.412;2022-09-13T07:21:38;4.25;;;3.78;;
25535;SDS011;13431;51.352;6.412;2022-09-13T07:24:05;3.90;;;3.28;;
25535;SDS011;13431;51.352;6.412;2022-09-13T07:26:33;4.68;;;4.28;;
25535;SDS011;13431;51.352;6.412;2022-09-13T07:29:01;7.43;;;4.50;;
25535;SDS011;13431;51.352;6.412;2022-09-13T07:31:33;4.50;;;4.00;;
25535;SDS011;13431;51.352;6.412;2022-09-13T07:34:03;4.38;;;3.97;;
25535;SDS011;13431;51.352;6.412;2022-09-13T07:36:33;4.53;;;4.13;;
25535;SDS011;13431;51.352;6.412;2022-09-13T07:39:02;5.05;;;4.05;;
25535;SDS011;13431;51.352;6.412;2022-09-13T07:41:30;5.85;;;3.60;;
25535;SDS011;13431;51.352;6.412;2022-09-13T07:44:00;7.70;;;4.50;;
25535;SDS011;13431;51.352;6.412;2022-09-13T07:46:33;5.10;;;4.15;;
25535;SDS011;13431;51.352;6.412;2022-09-13T07:49:05;5.45;;;4.47;;
25535;SDS011;13431;51.352;6.412;2022-09-13T07:51:37;4.60;;;4.05;;
25535;SDS011;13431;51.352;6.412;2022-09-13T07:54:06;6.93;;;4.60;;
25535;SDS011;13431;51.352;6.412;2022-09-13T07:56:41;4.35;;;3.70;;
25535;SDS011;13431;51.352;6.412;2022-09-13T07:59:13;4.38;;;4.03;;
25535;SDS011;13431;51.352;6.412;2022-09-13T08:01:42;5.45;;;4.22;;
25535;SDS011;13431;51.352;6.412;2022-09-13T08:04:12;4.15;;;3.75;;
25535;SDS011;13431;51.352;6.412;2022-09-13T08:06:43;6.47;;;4.25;;
25535;SDS011;13431;51.352;6.412;2022-09-13T08:09:11;8.18;;;4.63;;
25535;SDS011;13431;51.352;6.412;2022-09-13T08:11:43;4.53;;;4.18;;
25535;SDS011;13431;51.352;6.412;2022-09-13T08:14:15;5.15;;;4.05;;
25535;SDS011;13431;51.352;6.412;2022-09-13T08:16:43;5.95;;;4.85;;
25535;SDS011;13431;51.352;6.412;2022-09-13T08:19:12;8.82;;;4.82;;
25535;SDS011;13431;51.352;6.412;2022-09-13T08:21:41;6.40;;;4.75;;
25535;SDS011;13431;51.352;6.412;2022-09-13T08:24:14;5.88;;;5.00;;
25535;SDS011;13431;51.352;6.412;2022-09-13T08:26:43;7.47;;;5.13;;
25535;SDS011;13431;51.352;6.412;2022-09-13T08:29:12;7.22;;;4.78;;
25535;SDS011;13431;51.352;6.412;2022-09-13T08:31:40;6.93;;;5.85;;
25535;SDS011;13431;51.352;6.412;2022-09-13T08:34:14;7.05;;;5.30;;
25535;SDS011;13431;51.352;6.412;2022-09-13T08:36:42;6.05;;;5.45;;
25535;SDS011;13431;51.352;6.412;2022-09-13T08:39:10;8.80;;;6.35;;
25535;SDS011;13431;51.352;6.412;2022-09-13T08:44:29;9.25;;;6.38;;
25535;SDS011;13431;51.352;6.412;2022-09-13T08:50:11;7.53;;;6.18;;
25535;SDS011;13431;51.352;6.412;2022-09-13T08:55:27;10.93;;;6.57;;
25535;SDS011;13431;51.352;6.412;2022-09-13T08:58:07;7.32;;;6.72;;
25535;SDS011;13431;51.352;6.412;2022-09-13T09:01:06;8.30;;;7.50;;
25535;SDS011;13431;51.352;6.412;2022-09-13T09:03:57;8.20;;;6.53;;
25535;SDS011;13431;51.352;6.412;2022-09-13T09:06:36;8.37;;;7.17;;
25535;SDS011;13431;51.352;6.412;2022-09-13T09:09:05;9.25;;;7.72;;
25535;SDS011;13431;51.352;6.412;2022-09-13T09:14:10;8.63;;;7.82;;
25535;SDS011;13431;51.352;6.412;2022-09-13T09:16:54;9.07;;;7.47;;
25535;SDS011;13431;51.352;6.412;2022-09-13T09:22:28;8.18;;;7.38;;
25535;SDS011;13431;51.352;6.412;2022-09-13T09:27:29;8.85;;;6.82;;
25535;SDS011;13431;51.352;6.412;2022-09-13T09:29:56;8.18;;;6.78;;
25535;SDS011;13431;51.352;6.412;2022-09-13T09:38:20;7.95;;;6.75;;
25535;SDS011;13431;51.352;6.412;2022-09-13T09:41:03;6.68;;;6.07;;
25535;SDS011;13431;51.352;6.412;2022-09-13T09:43:34;6.78;;;6.07;;
25535;SDS011;13431;51.352;6.412;2022-09-13T09:46:07;6.97;;;6.32;;
25535;SDS011;13431;51.352;6.412;2022-09-13T09:48:39;9.73;;;7.63;;
25535;SDS011;13431;51.352;6.412;2022-09-13T09:51:10;6.85;;;6.15;;
25535;SDS011;13431;51.352;6.412;2022-09-13T09:53:41;8.20;;;7.50;;
25535;SDS011;13431;51.352;6.412;2022-09-13T09:56:18;7.32;;;6.22;;
25535;SDS011;13431;51.352;6.412;2022-09-13T09:58:51;8.27;;;7.10;;
25535;SDS011;13431;51.352;6.412;2022-09-13T10:03:57;10.07;;;7.40;;
25535;SDS011;13431;51.352;6.412;2022-09-13T10:06:30;8.82;;;6.30;;
25535;SDS011;13431;51.352;6.412;2022-09-13T10:08:59;7.20;;;6.60;;
25535;SDS011;13431;51.352;6.412;2022-09-13T10:17:28;9.27;;;8.38;;
25535;SDS011;13431;51.352;6.412;2022-09-13T10:20:00;8.90;;;8.10;;
25535;SDS011;13431;51.352;6.412;2022-09-13T10:22:42;7.53;;;6.88;;
25535;SDS011;13431;51.352;6.412;2022-09-13T10:27:54;8.10;;;7.28;;
25535;SDS011;13431;51.352;6.412;2022-09-13T10:30:45;9.20;;;8.40;;
25535;SDS011;13431;51.352;6.412;2022-09-13T10:33:21;7.28;;;6.68;;
25535;SDS011;13431;51.352;6.412;2022-09-13T10:35:54;8.90;;;5.90;;
25535;SDS011;13431;51.352;6.412;2022-09-13T10:38:31;11.35;;;6.93;;
25535;SDS011;13431;51.352;6.412;2022-09-13T10:41:03;8.20;;;6.15;;
25535;SDS011;13431;51.352;6.412;2022-09-13T10:43:33;6.72;;;6.05;;
25535;SDS011;13431;51.352;6.412;2022-09-13T10:46:02;7.32;;;6.63;;
25535;SDS011;13431;51.352;6.412;2022-09-13T10:48:42;7.03;;;6.45;;
25535;SDS011;13431;51.352;6.412;2022-09-13T10:51:28;6.38;;;5.78;;
25535;SDS011;13431;51.352;6.412;2022-09-13T10:54:13;6.63;;;6.07;;
25535;SDS011;13431;51.352;6.412;2022-09-13T10:56:46;7.32;;;6.53;;
25535;SDS011;13431;51.352;6.412;2022-09-13T10:59:15;8.00;;;6.50;;
25535;SDS011;13431;51.352;6.412;2022-09-13T11:01:45;6.65;;;5.80;;
25535;SDS011;13431;51.352;6.412;2022-09-13T11:09:51;7.97;;;6.75;;
25535;SDS011;13431;51.352;6.412;2022-09-13T11:12:41;9.05;;;6.28;;
25535;SDS011;13431;51.352;6.412;2022-09-13T11:15:31;10.27;;;6.97;;
25535;SDS011;13431;51.352;6.412;2022-09-13T11:29:08;7.93;;;7.22;;
25535;SDS011;13431;51.352;6.412;2022-09-13T11:31:57;8.48;;;7.70;;
25535;SDS011;13431;51.352;6.412;2022-09-13T11:51:44;10.73;;;9.70;;
25535;SDS011;13431;51.352;6.412;2022-09-13T11:54:36;10.77;;;9.65;;
25535;SDS011;13431;51.352;6.412;2022-09-13T11:57:16;11.63;;;9.35;;
25535;SDS011;13431;51.352;6.412;2022-09-13T12:02:48;10.63;;;8.48;;
25535;SDS011;13431;51.352;6.412;2022-09-13T12:05:39;8.25;;;7.53;;
25535;SDS011;13431;51.352;6.412;2022-09-13T12:08:18;9.48;;;6.93;;
25535;SDS011;13431;51.352;6.412;2022-09-13T12:10:58;8.40;;;7.70;;
25535;SDS011;13431;51.352;6.412;2022-09-13T12:13:34;8.55;;;7.70;;
25535;SDS011;13431;51.352;6.412;2022-09-13T12:16:07;8.55;;;7.72;;
25535;SDS011;13431;51.352;6.412;2022-09-13T12:18:39;9.18;;;7.95;;
25535;SDS011;13431;51.352;6.412;2022-09-13T12:21:11;9.27;;;8.43;;
25535;SDS011;13431;51.352;6.412;2022-09-13T12:23:42;9.43;;;7.65;;
25535;SDS011;13431;51.352;6.412;2022-09-13T12:26:14;10.13;;;9.15;;
25535;SDS011;13431;51.352;6.412;2022-09-13T12:28:53;10.45;;;9.55;;
25535;SDS011;13431;51.352;6.412;2022-09-13T12:31:30;9.90;;;8.98;;
25535;SDS011;13431;51.352;6.412;2022-09-13T12:33:58;10.00;;;8.98;;
25535;SDS011;13431;51.352;6.412;2022-09-13T12:47:54;6.88;;;6.32;;
25535;SDS011;13431;51.352;6.412;2022-09-13T12:50:50;8.88;;;7.97;;
25535;SDS011;13431;51.352;6.412;2022-09-13T13:02:34;8.25;;;7.55;;
25535;SDS011;13431;51.352;6.412;2022-09-13T13:05:05;10.20;;;8.38;;
25535;SDS011;13431;51.352;6.412;2022-09-13T13:07:41;8.10;;;6.95;;
25535;SDS011;13431;51.352;6.412;2022-09-13T13:10:30;10.82;;;8.55;;
25535;SDS011;13431;51.352;6.412;2022-09-13T13:13:09;8.43;;;7.45;;
25535;SDS011;13431;51.352;6.412;2022-09-13T13:18:23;7.35;;;6.60;;
25535;SDS011;13431;51.352;6.412;2022-09-13T13:33:47;11.02;;;9.95;;
25535;SDS011;13431;51.352;6.412;2022-09-13T13:36:20;11.13;;;10.13;;
25535;SDS011;13431;51.352;6.412;2022-09-13T13:39:11;10.10;;;9.05;;
25535;SDS011;13431;51.352;6.412;2022-09-13T13:41:46;11.25;;;10.13;;
25535;SDS011;13431;51.352;6.412;2022-09-13T13:46:52;10.95;;;9.07;;
25535;SDS011;13431;51.352;6.412;2022-09-13T13:57:24;12.30;;;11.10;;
25535;SDS011;13431;51.352;6.412;2022-09-13T14:19:28;11.15;;;9.98;;
25535;SDS011;13431;51.352;6.412;2022-09-13T14:22:08;13.48;;;12.15;;
25535;SDS011;13431;51.352;6.412;2022-09-13T14:24:46;11.43;;;10.30;;
25535;SDS011;13431;51.352;6.412;2022-09-13T14:27:16;12.13;;;10.98;;
25535;SDS011;13431;51.352;6.412;2022-09-13T14:29:47;12.70;;;11.07;;
25535;SDS011;13431;51.352;6.412;2022-09-13T14:32:19;15.10;;;11.77;;
25535;SDS011;13431;51.352;6.412;2022-09-13T14:34:54;11.50;;;9.93;;
25535;SDS011;13431;51.352;6.412;2022-09-13T14:37:30;9.80;;;8.55;;
25535;SDS011;13431;51.352;6.412;2022-09-13T14:40:17;11.15;;;10.05;;
25535;SDS011;13431;51.352;6.412;2022-09-13T14:42:49;11.63;;;10.45;;
25535;SDS011;13431;51.352;6.412;2022-09-13T14:45:18;11.82;;;10.68;;
25535;SDS011;13431;51.352;6.412;2022-09-13T14:47:59;12.95;;;11.65;;
25535;SDS011;13431;51.352;6.412;2022-09-13T14:50:57;13.23;;;12.05;;
25535;SDS011;13431;51.352;6.412;2022-09-13T14:55:59;14.93;;;10.73;;
25535;SDS011;13431;51.352;6.412;2022-09-13T14:58:40;12.18;;;10.98;;
25535;SDS011;13431;51.352;6.412;2022-09-13T15:01:18;11.55;;;10.30;;
25535;SDS011;13431;51.352;6.412;2022-09-13T15:03:48;10.68;;;9.68;;
25535;SDS011;13431;51.352;6.412;2022-09-13T15:06:21;12.80;;;11.52;;
25535;SDS011;13431;51.352;6.412;2022-09-13T15:08:51;11.68;;;9.63;;
25535;SDS011;13431;51.352;6.412;2022-09-13T15:11:26;12.23;;;10.88;;
25535;SDS011;13431;51.352;6.412;2022-09-13T15:14:13;11.48;;;10.30;;
25535;SDS011;13431;51.352;6.412;2022-09-13T15:16:58;13.63;;;11.48;;
25535;SDS011;13431;51.352;6.412;2022-09-13T15:19:48;10.50;;;9.68;;
25535;SDS011;13431;51.352;6.412;2022-09-13T15:22:22;11.98;;;10.80;;
25535;SDS011;13431;51.352;6.412;2022-09-13T15:24:53;18.98;;;11.13;;
25535;SDS011;13431;51.352;6.412;2022-09-13T15:27:41;10.65;;;9.65;;
25535;SDS011;13431;51.352;6.412;2022-09-13T15:30:21;13.50;;;10.07;;
25535;SDS011;13431;51.352;6.412;2022-09-13T15:33:01;10.45;;;9.45;;
25535;SDS011;13431;51.352;6.412;2022-09-13T15:35:50;10.13;;;9.20;;
25535;SDS011;13431;51.352;6.412;2022-09-13T15:38:22;15.75;;;9.45;;
25535;SDS011;13431;51.352;6.412;2022-09-13T15:41:11;10.60;;;9.63;;
25535;SDS011;13431;51.352;6.412;2022-09-13T15:43:46;10.27;;;9.27;;
25535;SDS011;13431;51.352;6.412;2022-09-13T15:46:14;10.48;;;8.68;;
25535;SDS011;13431;51.352;6.412;2022-09-13T15:48:43;8.82;;;8.02;;
25535;SDS011;13431;51.352;6.412;2022-09-13T15:51:22;9.18;;;8.35;;
25535;SDS011;13431;51.352;6.412;2022-09-13T15:53:49;9.57;;;8.60;;
25535;SDS011;13431;51.352;6.412;2022-09-13T15:56:24;8.85;;;8.07;;
25535;SDS011;13431;51.352;6.412;2022-09-13T15:59:00;8.95;;;8.07;;
25535;SDS011;13431;51.352;6.412;2022-09-13T16:01:28;13.50;;;8.10;;
25535;SDS011;13431;51.352;6.412;2022-09-13T16:03:56;11.10;;;8.65;;
25535;SDS011;13431;51.352;6.412;2022-09-13T16:06:23;11.88;;;9.77;;
25535;SDS011;13431;51.352;6.412;2022-09-13T16:08:51;12.48;;;10.10;;
25535;SDS011;13431;51.352;6.412;2022-09-13T16:11:18;9.98;;;7.93;;
25535;SDS011;13431;51.352;6.412;2022-09-13T16:13:45;9.95;;;9.05;;
25535;SDS011;13431;51.352;6.412;2022-09-13T16:16:13;11.95;;;8.18;;
25535;SDS011;13431;51.352;6.412;2022-09-13T16:18:40;9.65;;;8.68;;
25535;SDS011;13431;51.352;6.412;2022-09-13T16:21:08;9.30;;;8.55;;
25535;SDS011;13431;51.352;6.412;2022-09-13T16:23:35;9.25;;;8.35;;
25535;SDS011;13431;51.352;6.412;2022-09-13T16:26:03;11.65;;;9.38;;
25535;SDS011;13431;51.352;6.412;2022-09-13T16:28:31;10.25;;;9.25;;
25535;SDS011;13431;51.352;6.412;2022-09-13T16:30:58;10.25;;;9.02;;
25535;SDS011;13431;51.352;6.412;2022-09-13T16:33:26;12.38;;;10.63;;
25535;SDS011;13431;51.352;6.412;2022-09-13T16:35:53;12.30;;;9.43;;
25535;SDS011;13431;51.352;6.412;2022-09-13T16:38:25;10.73;;;8.85;;
25535;SDS011;13431;51.352;6.412;2022-09-13T16:40:53;9.68;;;8.20;;
25535;SDS011;13431;51.352;6.412;2022-09-13T16:43:20;8.70;;;7.78;;
25535;SDS011;13431;51.352;6.412;2022-09-13T16:45:48;8.52;;;7.65;;
25535;SDS011;13431;51.352;6.412;2022-09-13T16:48:17;8.52;;;7.70;;
25535;SDS011;13431;51.352;6.412;2022-09-13T16:50:45;7.97;;;7.30;;
25535;SDS011;13431;51.352;6.412;2022-09-13T16:53:12;9.23;;;7.30;;
25535;SDS011;13431;51.352;6.412;2022-09-13T16:55:39;8.05;;;7.18;;
25535;SDS011;13431;51.352;6.412;2022-09-13T16:58:07;10.23;;;8.55;;
25535;SDS011;13431;51.352;6.412;2022-09-13T17:00:34;10.20;;;8.27;;
25535;SDS011;13431;51.352;6.412;2022-09-13T17:03:01;8.95;;;7.72;;
25535;SDS011;13431;51.352;6.412;2022-09-13T17:05:29;8.52;;;7.70;;
25535;SDS011;13431;51.352;6.412;2022-09-13T17:07:56;11.52;;;7.15;;
25535;SDS011;13431;51.352;6.412;2022-09-13T17:10:24;9.80;;;7.65;;
25535;SDS011;13431;51.352;6.412;2022-09-13T17:12:51;10.05;;;7.82;;
25535;SDS011;13431;51.352;6.412;2022-09-13T17:15:19;9.63;;;7.30;;
25535;SDS011;13431;51.352;6.412;2022-09-13T17:17:46;6.72;;;6.03;;
25535;SDS011;13431;51.352;6.412;2022-09-13T17:20:14;7.53;;;6.93;;
25535;SDS011;13431;51.352;6.412;2022-09-13T17:22:42;7.90;;;7.20;;
25535;SDS011;13431;51.352;6.412;2022-09-13T17:25:09;6.80;;;6.15;;
25535;SDS011;13431;51.352;6.412;2022-09-13T17:27:37;7.38;;;6.25;;
25535;SDS011;13431;51.352;6.412;2022-09-13T17:30:04;10.25;;;7.20;;
25535;SDS011;13431;51.352;6.412;2022-09-13T17:32:33;8.05;;;7.30;;
25535;SDS011;13431;51.352;6.412;2022-09-13T17:35:03;9.55;;;7.82;;
25535;SDS011;13431;51.352;6.412;2022-09-13T17:37:30;9.77;;;7.20;;
25535;SDS011;13431;51.352;6.412;2022-09-13T17:39:58;8.48;;;7.68;;
25535;SDS011;13431;51.352;6.412;2022-09-13T17:42:25;9.23;;;6.75;;
25535;SDS011;13431;51.352;6.412;2022-09-13T17:44:56;8.35;;;6.90;;
25535;SDS011;13431;51.352;6.412;2022-09-13T17:47:23;10.05;;;7.35;;
25535;SDS011;13431;51.352;6.412;2022-09-13T17:49:51;9.68;;;6.80;;
25535;SDS011;13431;51.352;6.412;2022-09-13T17:52:18;7.93;;;7.10;;
25535;SDS011;13431;51.352;6.412;2022-09-13T17:54:45;14.55;;;8.35;;
25535;SDS011;13431;51.352;6.412;2022-09-13T17:57:13;9.15;;;7.78;;
25535;SDS011;13431;51.352;6.412;2022-09-13T17:59:41;10.52;;;8.38;;
25535;SDS011;13431;51.352;6.412;2022-09-13T18:02:08;8.93;;;8.02;;
25535;SDS011;13431;51.352;6.412;2022-09-13T18:04:36;9.35;;;8.35;;
25535;SDS011;13431;51.352;6.412;2022-09-13T18:07:03;9.10;;;8.20;;